Terminal Aerodrome Forecast
Issued by NWS

Home | Current Version | Previous Version | Text Only | Print | Product List | Glossary On
Versions: 1 2 3 4 5 6 7 8 9 10 11 12 13 14 15 16 17
000
FTUS44 KEWX 021100 CCA
TAFSSF
TAF COR
KSSF 021147Z 0212/0312 17009KT P6SM BKN015
     FM021500 17010KT P6SM BKN025
     FM021700 17010KT P6SM SCT050
     FM030200 15006KT P6SM SCT025 BKN040
      TEMPO 0304/0307 VRB20G30KT 3SM TSRA BKN025CB
     FM030700 01008KT P6SM -TSRA SCT025 BKN040CB
     FM031000 02011KT P6SM SCT050 SCT080=

USA.gov is the U.S. government's official web portal to all federal, state and local government web resources and services.